Time;durP1;ratioP1;P1;durP2;ratioP2;P2;SDS_P1;SDS_P2;PMS_P1;PMS_P2;Temp;Humidity;BMP_temperature;BMP_pressure;BME280_temperature;BME280_humidity;BME280_pressure;Samples;Min_cycle;Max_cycle;Signal;HPM_P1;HPM_P2
2022/03/08 00:02:09;;;;;;;6.88;5.85;;;3.60;99.90;;;;;;5051845;28;20613;-77
2022/03/08 00:04:35;;;;;;;8.20;5.63;;;3.60;99.90;;;;;;5051868;28;20183;-81
2022/03/08 00:07:00;;;;;;;6.20;5.60;;;3.60;99.90;;;;;;5051887;28;20171;-79
2022/03/08 00:09:27;;;;;;;6.22;5.53;;;3.60;99.90;;;;;;5052220;28;20171;-78
2022/03/08 00:11:52;;;;;;;8.75;6.45;;;3.40;99.90;;;;;;5051902;28;20258;-78
2022/03/08 00:14:18;;;;;;;8.68;6.35;;;3.40;99.90;;;;;;5051723;28;20186;-77
2022/03/08 00:16:44;;;;;;;8.10;6.10;;;3.40;99.90;;;;;;5052589;28;20558;-78
2022/03/08 00:19:10;;;;;;;11.33;6.40;;;3.30;99.90;;;;;;5037221;28;20167;-78
2022/03/08 00:21:35;;;;;;;7.65;5.90;;;3.30;99.90;;;;;;5052768;28;20182;-77
2022/03/08 00:24:01;;;;;;;6.35;5.75;;;3.40;99.90;;;;;;5034689;28;20616;-77
2022/03/08 00:26:27;;;;;;;6.73;5.93;;;3.30;99.90;;;;;;5051901;28;20221;-78
2022/03/08 00:28:53;;;;;;;7.17;5.77;;;3.30;99.90;;;;;;5051805;28;20167;-77
2022/03/08 00:31:18;;;;;;;11.43;5.95;;;3.30;99.90;;;;;;5052495;28;20222;-77
2022/03/08 00:33:47;;;;;;;6.20;5.35;;;3.10;99.90;;;;;;5052951;28;20163;-78
2022/03/08 00:36:13;;;;;;;6.38;5.53;;;3.20;99.90;;;;;;5055473;28;20302;-77
2022/03/08 00:38:39;;;;;;;6.17;5.40;;;3.10;99.90;;;;;;5058354;28;20167;-78
2022/03/08 00:41:04;;;;;;;14.30;6.15;;;3.20;99.90;;;;;;5039150;28;20171;-78
2022/03/08 00:43:30;;;;;;;8.15;5.78;;;3.20;99.90;;;;;;5056705;28;20225;-78
2022/03/08 00:45:55;;;;;;;6.03;5.43;;;3.20;99.90;;;;;;5056779;28;20198;-78
2022/03/08 00:48:21;;;;;;;7.40;5.95;;;3.10;99.90;;;;;;5055841;28;20202;-77
2022/03/08 00:50:47;;;;;;;6.93;6.10;;;3.00;99.90;;;;;;5055965;28;20163;-78
2022/03/08 00:53:13;;;;;;;6.93;5.57;;;3.00;99.90;;;;;;5055412;28;20523;-77
2022/03/08 00:55:39;;;;;;;5.70;4.95;;;3.00;99.90;;;;;;5056181;28;20206;-79
2022/03/08 00:58:06;;;;;;;11.63;6.20;;;2.90;99.90;;;;;;5058412;28;20635;-77
2022/03/08 01:00:34;;;;;;;8.32;5.35;;;3.10;99.90;;;;;;5057364;28;20189;-77
2022/03/08 01:03:01;;;;;;;7.45;5.47;;;3.00;99.90;;;;;;5059344;28;20183;-77
2022/03/08 01:05:28;;;;;;;6.87;5.77;;;3.10;99.90;;;;;;5056609;28;20199;-77
2022/03/08 01:07:54;;;;;;;8.82;6.45;;;3.10;99.90;;;;;;5054844;28;20600;-77
2022/03/08 01:10:22;;;;;;;6.40;4.97;;;3.00;99.90;;;;;;5054678;28;20163;-77
2022/03/08 01:12:48;;;;;;;11.80;6.10;;;3.10;99.90;;;;;;5054904;28;20225;-77
2022/03/08 01:15:15;;;;;;;9.65;6.50;;;3.10;99.90;;;;;;5054332;28;20195;-77
2022/03/08 01:17:41;;;;;;;7.55;6.55;;;3.00;99.90;;;;;;5054544;28;20171;-78
2022/03/08 01:20:08;;;;;;;13.10;6.20;;;3.00;99.90;;;;;;5054399;28;20627;-77
2022/03/08 01:22:34;;;;;;;7.90;5.95;;;3.10;99.90;;;;;;5054354;28;20547;-77
2022/03/08 01:25:00;;;;;;;8.18;6.40;;;3.00;99.90;;;;;;5054511;28;20270;-77
2022/03/08 01:27:26;;;;;;;8.65;6.43;;;3.10;99.90;;;;;;5036432;28;20163;-77
2022/03/08 01:29:51;;;;;;;7.78;6.20;;;3.20;99.90;;;;;;5054523;28;20186;-77
2022/03/08 01:32:17;;;;;;;6.05;5.50;;;3.20;99.90;;;;;;5054197;28;20164;-77
2022/03/08 01:34:43;;;;;;;6.93;5.65;;;3.30;99.90;;;;;;5053769;28;20171;-77
2022/03/08 01:37:10;;;;;;;6.90;6.05;;;3.10;99.90;;;;;;5054269;28;20521;-77
2022/03/08 01:39:36;;;;;;;10.32;5.50;;;3.00;99.90;;;;;;5054614;28;20164;-77
2022/03/08 01:42:20;;;;;;;10.10;5.95;;;3.10;99.90;;;;;;5054304;28;20190;-77
2022/03/08 01:44:46;;;;;;;9.82;5.72;;;3.10;99.90;;;;;;5057438;28;20190;-78
2022/03/08 01:47:16;;;;;;;6.70;5.83;;;2.90;99.90;;;;;;5056038;28;20722;-77
2022/03/08 01:49:43;;;;;;;7.93;6.50;;;2.90;99.90;;;;;;5054331;28;20166;-77
2022/03/08 01:52:09;;;;;;;7.60;6.82;;;2.90;99.90;;;;;;5053968;28;20221;-77
2022/03/08 01:54:35;;;;;;;7.10;6.18;;;2.90;99.90;;;;;;5053995;28;20179;-77
2022/03/08 01:57:02;;;;;;;11.43;6.07;;;2.90;99.90;;;;;;5053579;28;20225;-77
2022/03/08 01:59:27;;;;;;;6.97;6.20;;;3.00;99.90;;;;;;5053831;28;20163;-77
2022/03/08 02:01:53;;;;;;;6.57;5.75;;;2.90;99.90;;;;;;5053487;28;20174;-77
2022/03/08 02:04:18;;;;;;;9.33;7.00;;;2.80;99.90;;;;;;5053446;28;20214;-77
2022/03/08 02:06:45;;;;;;;7.95;5.93;;;2.70;99.90;;;;;;5053699;28;20246;-77
2022/03/08 02:09:10;;;;;;;7.25;6.55;;;2.80;99.90;;;;;;5053819;28;20675;-77
2022/03/08 02:11:37;;;;;;;6.28;5.68;;;2.70;99.90;;;;;;5053534;28;20194;-76
2022/03/08 02:14:03;;;;;;;9.87;6.67;;;2.70;99.90;;;;;;5053609;28;20167;-77
2022/03/08 02:16:29;;;;;;;7.93;6.45;;;2.80;99.90;;;;;;5053625;28;20211;-77
2022/03/08 02:18:54;;;;;;;11.23;6.65;;;2.80;99.90;;;;;;5053587;28;20523;-77
2022/03/08 02:21:20;;;;;;;7.65;6.03;;;2.60;99.90;;;;;;5053400;28;20178;-77
2022/03/08 02:23:46;;;;;;;6.07;5.50;;;2.50;99.90;;;;;;5053450;28;20171;-77
2022/03/08 02:26:11;;;;;;;9.03;7.23;;;2.40;99.90;;;;;;5053143;28;20187;-77
2022/03/08 02:28:38;;;;;;;11.33;6.43;;;2.50;99.90;;;;;;5035285;28;20175;-77
2022/03/08 02:31:04;;;;;;;6.40;5.80;;;2.50;99.90;;;;;;5053074;28;20159;-77
2022/03/08 02:33:29;;;;;;;9.67;6.07;;;2.40;99.90;;;;;;5035328;28;20262;-77
2022/03/08 02:35:55;;;;;;;6.33;5.40;;;2.30;99.90;;;;;;5052974;28;20227;-77
2022/03/08 02:38:20;;;;;;;11.17;5.87;;;2.30;99.90;;;;;;5053140;28;20683;-77
2022/03/08 02:40:46;;;;;;;8.17;5.93;;;2.30;99.90;;;;;;5053248;28;20628;-77
2022/03/08 02:43:13;;;;;;;6.37;5.77;;;2.40;99.90;;;;;;5035140;28;20187;-77
2022/03/08 02:45:40;;;;;;;6.70;6.00;;;2.40;99.90;;;;;;5052984;28;20190;-77
2022/03/08 02:48:06;;;;;;;6.23;5.50;;;2.60;99.90;;;;;;5052773;28;20250;-78
2022/03/08 02:50:32;;;;;;;9.00;6.07;;;2.50;99.90;;;;;;5052991;28;20174;-77
2022/03/08 02:52:58;;;;;;;7.80;6.07;;;2.40;99.90;;;;;;5052982;28;20254;-77
2022/03/08 02:55:27;;;;;;;8.35;5.65;;;2.50;99.90;;;;;;5052340;28;20298;-77
2022/03/08 02:57:54;;;;;;;6.53;5.90;;;2.50;99.90;;;;;;5052193;28;20172;-78
2022/03/08 03:00:22;;;;;;;6.47;5.22;;;2.60;99.90;;;;;;5053084;28;20620;-77
2022/03/08 03:02:49;;;;;;;8.03;5.90;;;2.60;99.90;;;;;;5052558;28;20647;-77
2022/03/08 03:05:15;;;;;;;11.25;6.50;;;2.60;99.90;;;;;;5052649;28;20285;-77
2022/03/08 03:07:41;;;;;;;7.30;6.43;;;2.70;99.90;;;;;;5052757;28;20250;-77
2022/03/08 03:10:16;;;;;;;8.13;6.43;;;2.60;99.90;;;;;;5052810;28;20254;-77
2022/03/08 03:12:42;;;;;;;10.43;6.77;;;2.70;99.90;;;;;;5052330;28;20224;-77
2022/03/08 03:15:10;;;;;;;7.40;5.78;;;2.80;99.90;;;;;;5052506;28;20667;-77
2022/03/08 03:17:36;;;;;;;9.10;5.68;;;2.80;99.90;;;;;;5052535;28;20174;-77
2022/03/08 03:20:03;;;;;;;6.82;6.03;;;2.90;99.90;;;;;;5052763;28;20175;-77
2022/03/08 03:22:29;;;;;;;8.47;6.60;;;2.90;99.90;;;;;;5052523;28;20167;-77
2022/03/08 03:24:54;;;;;;;6.25;5.65;;;2.70;99.90;;;;;;5052126;28;20190;-77
2022/03/08 03:27:20;;;;;;;9.90;5.88;;;2.60;99.90;;;;;;5052452;28;20174;-77
2022/03/08 03:29:46;;;;;;;9.20;6.43;;;2.60;99.90;;;;;;5052215;28;20175;-77
2022/03/08 03:32:11;;;;;;;7.00;5.77;;;2.50;99.90;;;;;;5052095;28;20511;-77
2022/03/08 03:34:37;;;;;;;7.57;6.77;;;2.40;99.90;;;;;;5052184;28;20498;-77
2022/03/08 03:37:02;;;;;;;10.43;5.87;;;2.30;99.90;;;;;;5051959;28;20171;-77
2022/03/08 03:39:28;;;;;;;7.27;5.83;;;2.30;99.90;;;;;;5052347;28;20620;-78
2022/03/08 03:41:54;;;;;;;7.27;5.90;;;2.30;99.90;;;;;;5052203;28;20168;-77
2022/03/08 03:44:19;;;;;;;10.20;6.03;;;2.30;99.90;;;;;;5052595;28;20186;-77
2022/03/08 03:46:45;;;;;;;7.97;5.70;;;2.40;99.90;;;;;;5052063;28;20226;-78
2022/03/08 03:49:10;;;;;;;7.80;6.47;;;2.50;99.90;;;;;;5052217;28;20220;-77
2022/03/08 03:51:36;;;;;;;7.50;6.60;;;2.50;99.90;;;;;;5052337;28;20248;-77
2022/03/08 03:54:02;;;;;;;8.37;6.60;;;2.60;99.90;;;;;;5052201;28;20175;-77
2022/03/08 03:56:27;;;;;;;6.50;5.80;;;2.60;99.90;;;;;;5051874;28;20688;-80
2022/03/08 03:58:53;;;;;;;6.83;5.73;;;2.80;99.90;;;;;;5052321;28;20655;-77
2022/03/08 04:01:18;;;;;;;8.47;5.47;;;2.80;99.90;;;;;;5034219;28;20171;-78
2022/03/08 04:03:44;;;;;;;9.30;6.18;;;2.70;99.90;;;;;;5052027;28;20254;-77
2022/03/08 04:06:10;;;;;;;7.05;6.35;;;2.80;99.90;;;;;;5052442;28;20191;-77
2022/03/08 04:08:35;;;;;;;7.00;6.23;;;2.80;99.90;;;;;;5051897;28;20630;-78
2022/03/08 04:11:01;;;;;;;10.48;6.68;;;2.70;99.90;;;;;;5054389;28;20167;-77
2022/03/08 04:13:26;;;;;;;9.93;5.97;;;2.80;99.90;;;;;;5056021;28;20171;-78
2022/03/08 04:15:52;;;;;;;8.63;6.13;;;2.90;99.90;;;;;;5055661;28;20617;-78
2022/03/08 04:18:18;;;;;;;7.45;6.50;;;2.90;99.90;;;;;;5037726;28;20624;-78
2022/03/08 04:20:45;;;;;;;9.50;6.60;;;3.00;99.90;;;;;;5055764;28;20168;-77
2022/03/08 04:23:11;;;;;;;8.23;6.53;;;2.90;99.90;;;;;;5055738;28;20246;-77
2022/03/08 04:25:37;;;;;;;10.60;6.80;;;2.90;99.90;;;;;;5037788;28;20285;-77
2022/03/08 04:28:04;;;;;;;10.17;6.03;;;3.00;99.90;;;;;;5055339;28;20274;-77
2022/03/08 04:30:30;;;;;;;7.87;6.73;;;3.00;99.90;;;;;;5055336;28;20516;-77
2022/03/08 04:32:56;;;;;;;8.57;6.30;;;3.00;99.90;;;;;;5055196;28;20251;-76
2022/03/08 04:35:22;;;;;;;9.17;7.07;;;3.00;99.90;;;;;;5055164;28;20286;-76
2022/03/08 04:37:48;;;;;;;8.93;6.80;;;3.10;99.90;;;;;;5055290;28;20174;-76
2022/03/08 04:40:15;;;;;;;6.77;6.07;;;3.10;99.90;;;;;;5055022;28;20597;-76
2022/03/08 04:42:41;;;;;;;9.67;6.53;;;3.00;99.90;;;;;;5054865;28;20277;-77
2022/03/08 04:45:10;;;;;;;6.75;6.15;;;2.60;99.90;;;;;;5054923;28;20651;-76
2022/03/08 04:47:36;;;;;;;8.90;6.30;;;2.50;99.90;;;;;;5055084;28;20206;-77
2022/03/08 04:50:11;;;;;;;9.20;7.07;;;2.60;99.90;;;;;;5055502;28;20262;-77
2022/03/08 04:52:36;;;;;;;11.00;7.20;;;2.60;99.90;;;;;;5055048;28;20534;-76
2022/03/08 04:55:04;;;;;;;11.33;7.50;;;2.70;99.90;;;;;;5054894;28;20213;-76
2022/03/08 04:57:29;;;;;;;8.20;6.90;;;2.60;99.90;;;;;;5055002;28;20197;-76
2022/03/08 04:59:55;;;;;;;10.07;7.20;;;2.30;99.90;;;;;;5054907;28;20258;-77
2022/03/08 05:02:21;;;;;;;11.53;7.30;;;2.00;99.90;;;;;;5055003;28;20176;-77
2022/03/08 05:04:47;;;;;;;10.70;7.00;;;1.70;99.90;;;;;;5054874;28;20246;-76
2022/03/08 05:07:12;;;;;;;11.20;7.17;;;1.60;99.90;;;;;;5054551;28;20615;-76
2022/03/08 05:09:38;;;;;;;7.63;6.70;;;1.70;99.90;;;;;;5054943;28;20186;-77
2022/03/08 05:12:04;;;;;;;11.10;6.90;;;1.60;99.90;;;;;;5054702;28;20174;-76
2022/03/08 05:14:31;;;;;;;12.37;7.10;;;1.60;99.90;;;;;;5054526;28;20167;-77
2022/03/08 05:16:57;;;;;;;17.80;6.80;;;1.50;99.90;;;;;;5054179;28;20199;-76
2022/03/08 05:19:22;;;;;;;13.07;7.77;;;1.40;99.90;;;;;;5054440;28;20245;-77
2022/03/08 05:21:48;;;;;;;15.97;6.70;;;1.50;99.90;;;;;;5036292;28;20572;-77
2022/03/08 05:24:13;;;;;;;8.67;6.63;;;1.60;99.90;;;;;;5054425;28;20202;-77
2022/03/08 05:26:39;;;;;;;6.17;5.53;;;1.60;99.90;;;;;;5054309;28;20655;-77
2022/03/08 05:29:07;;;;;;;8.03;6.63;;;1.40;99.90;;;;;;5054177;28;20549;-77
2022/03/08 05:31:32;;;;;;;9.47;6.93;;;1.40;99.90;;;;;;5054646;28;20612;-77
2022/03/08 05:33:58;;;;;;;21.70;7.37;;;1.40;99.90;;;;;;5036326;28;20182;-76
2022/03/08 05:36:24;;;;;;;18.53;7.30;;;1.50;99.90;;;;;;5054087;28;20211;-76
2022/03/08 05:38:50;;;;;;;9.53;6.70;;;1.20;99.90;;;;;;5053956;28;20167;-77
2022/03/08 05:41:15;;;;;;;10.70;6.37;;;1.20;99.90;;;;;;5053978;28;20250;-77
2022/03/08 05:43:41;;;;;;;10.23;6.30;;;1.30;99.90;;;;;;5036176;28;20661;-77
2022/03/08 05:46:06;;;;;;;7.93;5.33;;;1.30;99.90;;;;;;5053669;28;20195;-76
2022/03/08 05:48:32;;;;;;;7.40;6.67;;;1.10;99.90;;;;;;5054164;28;20171;-76
2022/03/08 05:50:58;;;;;;;24.33;7.13;;;1.20;99.90;;;;;;5054092;28;20163;-77
2022/03/08 05:53:23;;;;;;;8.83;7.47;;;1.20;99.90;;;;;;5053991;28;20170;-77
2022/03/08 05:55:49;;;;;;;8.93;6.63;;;1.30;99.90;;;;;;5053809;28;20202;-77
2022/03/08 05:58:15;;;;;;;7.53;6.27;;;1.40;99.90;;;;;;5053642;28;20209;-77
2022/03/08 06:00:40;;;;;;;10.03;8.20;;;1.40;99.90;;;;;;5035612;28;20167;-77
2022/03/08 06:03:07;;;;;;;11.10;7.17;;;1.20;99.90;;;;;;5053628;28;20526;-76
2022/03/08 06:05:32;;;;;;;15.60;7.37;;;1.10;99.90;;;;;;5053716;28;20183;-77
2022/03/08 06:07:58;;;;;;;13.10;7.43;;;1.10;99.90;;;;;;5053793;28;20166;-76
2022/03/08 06:10:24;;;;;;;17.50;6.43;;;1.00;99.90;;;;;;5053315;28;20163;-76
2022/03/08 06:12:49;;;;;;;8.73;6.90;;;1.00;99.90;;;;;;5054019;28;20167;-77
2022/03/08 06:15:15;;;;;;;14.97;7.37;;;0.80;99.90;;;;;;5053370;28;20256;-77
2022/03/08 06:17:40;;;;;;;8.60;7.53;;;0.90;99.90;;;;;;5053130;28;20252;-76
2022/03/08 06:20:07;;;;;;;8.40;6.60;;;0.90;99.90;;;;;;5053590;28;20616;-77
2022/03/08 06:22:32;;;;;;;12.10;6.67;;;1.20;99.90;;;;;;5053482;28;20712;-77
2022/03/08 06:24:58;;;;;;;18.33;7.10;;;1.30;99.90;;;;;;5053258;28;20273;-77
2022/03/08 06:27:24;;;;;;;13.40;7.37;;;1.30;99.90;;;;;;5053155;28;20163;-77
2022/03/08 06:29:51;;;;;;;30.43;8.50;;;1.20;99.90;;;;;;5052874;28;20211;-77
2022/03/08 06:32:18;;;;;;;18.77;7.87;;;1.10;99.90;;;;;;5052650;28;20159;-77
2022/03/08 06:34:43;;;;;;;16.80;6.90;;;1.10;99.90;;;;;;5052641;28;20243;-77
2022/03/08 06:37:09;;;;;;;19.27;7.60;;;1.10;99.90;;;;;;5053245;28;20504;-77
2022/03/08 06:39:35;;;;;;;20.10;7.03;;;1.00;99.90;;;;;;5053379;28;20597;-77
2022/03/08 06:42:00;;;;;;;9.10;6.33;;;1.10;99.90;;;;;;5052758;28;20175;-77
2022/03/08 06:44:26;;;;;;;9.90;7.20;;;1.10;99.90;;;;;;5052486;28;20183;-77
2022/03/08 06:46:51;;;;;;;17.97;6.97;;;1.10;99.90;;;;;;5052588;28;20175;-76
2022/03/08 06:49:17;;;;;;;13.63;6.90;;;1.30;99.90;;;;;;5052580;28;20277;-77
2022/03/08 06:51:43;;;;;;;11.50;7.43;;;1.30;99.90;;;;;;5052706;28;20213;-77
2022/03/08 06:54:08;;;;;;;16.07;6.93;;;1.50;99.90;;;;;;5052286;28;20214;-78
2022/03/08 06:56:35;;;;;;;10.63;6.73;;;1.70;99.90;;;;;;5051986;28;20218;-76
2022/03/08 06:59:01;;;;;;;17.10;6.83;;;1.60;99.90;;;;;;5052382;28;20602;-78
2022/03/08 07:01:27;;;;;;;9.57;6.17;;;1.50;99.90;;;;;;5052382;28;20159;-77
2022/03/08 07:03:53;;;;;;;10.23;5.97;;;1.40;99.90;;;;;;5034340;28;20190;-76
2022/03/08 07:06:18;;;;;;;12.50;7.03;;;1.50;99.90;;;;;;5051706;28;20204;-77
2022/03/08 07:08:44;;;;;;;25.27;7.60;;;1.50;99.90;;;;;;5051996;28;20248;-76
2022/03/08 07:11:10;;;;;;;16.00;7.57;;;1.60;99.90;;;;;;5052292;28;20167;-77
2022/03/08 07:13:36;;;;;;;29.40;8.40;;;1.80;99.90;;;;;;5051996;28;20172;-77
2022/03/08 07:16:02;;;;;;;23.67;7.13;;;2.00;99.90;;;;;;5051976;28;20218;-76
2022/03/08 07:18:28;;;;;;;8.27;6.87;;;1.90;99.90;;;;;;5052173;28;20174;-77
2022/03/08 07:20:53;;;;;;;15.63;7.13;;;1.70;99.90;;;;;;5051859;28;20537;-77
2022/03/08 07:23:19;;;;;;;11.37;7.03;;;1.70;99.90;;;;;;5052476;28;20178;-77
2022/03/08 07:25:45;;;;;;;17.83;6.63;;;1.90;99.90;;;;;;5034559;28;20655;-77
2022/03/08 07:28:10;;;;;;;13.00;7.30;;;2.10;99.90;;;;;;5052244;28;20178;-77
2022/03/08 07:30:36;;;;;;;15.05;7.05;;;2.30;99.90;;;;;;5052047;28;20612;-77
2022/03/08 07:33:02;;;;;;;13.90;6.93;;;2.50;99.90;;;;;;5051778;28;20167;-77
2022/03/08 07:35:27;;;;;;;14.95;6.78;;;2.50;99.90;;;;;;5052176;28;20225;-77
2022/03/08 07:37:53;;;;;;;8.50;5.65;;;2.50;99.90;;;;;;5034700;28;20190;-77
2022/03/08 07:40:19;;;;;;;14.50;6.80;;;2.30;99.90;;;;;;5052042;28;20196;-77
2022/03/08 07:42:45;;;;;;;13.57;5.57;;;2.30;99.90;;;;;;5051773;28;20191;-77
2022/03/08 07:45:10;;;;;;;12.30;7.20;;;2.40;99.90;;;;;;5054753;28;20239;-77
2022/03/08 07:47:36;;;;;;;10.50;5.87;;;2.50;99.90;;;;;;5055784;28;20620;-82
2022/03/08 07:50:03;;;;;;;7.55;5.97;;;2.40;99.90;;;;;;5056130;28;20182;-78
2022/03/08 07:52:29;;;;;;;19.20;7.27;;;2.50;99.90;;;;;;5056694;28;20186;-78
2022/03/08 07:54:55;;;;;;;14.30;5.88;;;2.70;99.90;;;;;;5056359;28;20264;-77
2022/03/08 07:57:20;;;;;;;11.77;6.00;;;2.90;99.90;;;;;;5056307;28;20178;-77
2022/03/08 07:59:46;;;;;;;8.50;6.23;;;2.90;99.90;;;;;;5055749;28;20175;-77
2022/03/08 08:02:11;;;;;;;15.38;5.70;;;3.00;99.90;;;;;;5055963;28;20175;-77
2022/03/08 08:04:37;;;;;;;6.38;5.78;;;2.90;99.90;;;;;;5055803;28;20651;-79
2022/03/08 08:07:03;;;;;;;8.48;6.32;;;2.80;99.90;;;;;;5055975;28;20174;-77
2022/03/08 08:09:29;;;;;;;19.38;6.95;;;2.90;99.90;;;;;;5055360;28;20632;-76
2022/03/08 08:11:55;;;;;;;7.75;6.95;;;2.90;99.90;;;;;;5055206;28;20177;-77
2022/03/08 08:14:21;;;;;;;12.60;6.03;;;3.10;99.90;;;;;;5054802;28;20236;-77
2022/03/08 08:16:46;;;;;;;11.07;6.55;;;3.30;99.90;;;;;;5049095;28;20550;-76
2022/03/08 08:19:12;;;;;;;20.85;6.00;;;3.30;99.90;;;;;;5054418;28;20242;-77
2022/03/08 08:21:38;;;;;;;7.90;6.78;;;3.40;99.90;;;;;;5034273;28;20187;-77
2022/03/08 08:24:04;;;;;;;11.40;5.75;;;3.50;99.90;;;;;;5038046;28;20598;-77
2022/03/08 08:26:30;;;;;;;11.07;6.20;;;3.70;99.90;;;;;;5055157;28;20197;-78
2022/03/08 08:28:56;;;;;;;7.72;6.30;;;3.60;99.90;;;;;;5054666;28;20167;-78
2022/03/08 08:31:23;;;;;;;8.85;6.25;;;3.70;99.90;;;;;;5036719;28;20167;-79
2022/03/08 08:33:50;;;;;;;9.95;5.93;;;3.90;99.90;;;;;;5055150;28;20229;-81
2022/03/08 08:36:15;;;;;;;7.78;6.00;;;4.00;99.90;;;;;;5055046;28;20213;-81
2022/03/08 08:38:41;;;;;;;7.32;5.60;;;4.00;99.90;;;;;;5055431;28;20168;-79
2022/03/08 08:41:07;;;;;;;8.02;5.43;;;4.10;99.90;;;;;;5055233;28;20174;-78
2022/03/08 08:43:32;;;;;;;9.05;5.60;;;4.20;99.90;;;;;;5054823;28;20242;-77
2022/03/08 08:45:58;;;;;;;7.53;5.78;;;4.50;99.90;;;;;;5055688;28;20330;-78
2022/03/08 08:48:24;;;;;;;16.13;6.60;;;4.60;99.90;;;;;;5037085;28;20577;-77
2022/03/08 08:50:50;;;;;;;6.68;5.55;;;4.60;99.90;;;;;;5054860;28;20178;-79
2022/03/08 08:53:16;;;;;;;6.07;5.25;;;4.70;99.90;;;;;;5053795;28;20182;-79
2022/03/08 08:55:41;;;;;;;5.40;4.90;;;4.90;99.90;;;;;;5053510;28;20195;-77
2022/03/08 08:58:08;;;;;;;5.90;5.22;;;4.90;99.90;;;;;;5053156;28;20195;-79
2022/03/08 09:00:34;;;;;;;9.52;4.72;;;5.00;99.90;;;;;;5035334;28;20628;-79
2022/03/08 09:03:01;;;;;;;11.50;5.50;;;5.20;99.90;;;;;;5053791;28;20512;-80
2022/03/08 09:05:27;;;;;;;10.93;5.18;;;5.30;99.90;;;;;;5053264;28;20214;-77
2022/03/08 09:07:53;;;;;;;5.53;4.85;;;5.40;99.90;;;;;;5053624;28;20699;-76
2022/03/08 09:10:22;;;;;;;19.13;6.28;;;5.40;99.90;;;;;;5053240;28;20167;-77
2022/03/08 09:12:51;;;;;;;21.58;5.78;;;5.50;99.90;;;;;;5054612;28;20167;-76
2022/03/08 09:15:18;;;;;;;6.20;5.13;;;5.60;99.90;;;;;;5054657;28;20211;-77
2022/03/08 09:17:44;;;;;;;9.23;5.93;;;5.60;99.90;;;;;;5054454;28;20258;-77
2022/03/08 09:20:10;;;;;;;38.83;6.43;;;5.70;99.90;;;;;;5053563;28;20206;-77
2022/03/08 09:22:36;;;;;;;20.10;5.07;;;5.90;99.90;;;;;;5053591;28;20195;-78
2022/03/08 09:25:05;;;;;;;19.55;5.05;;;6.10;99.90;;;;;;5053889;28;20590;-77
2022/03/08 09:27:31;;;;;;;57.72;8.63;;;6.00;99.90;;;;;;5053611;28;20167;-78
2022/03/08 09:29:57;;;;;;;11.43;5.50;;;6.10;99.90;;;;;;5053707;28;20581;-78
2022/03/08 09:32:23;;;;;;;12.35;5.75;;;6.10;99.90;;;;;;5053551;28;20198;-76
2022/03/08 09:34:49;;;;;;;8.88;5.80;;;6.10;99.90;;;;;;5054008;28;20243;-77
2022/03/08 09:37:14;;;;;;;15.52;5.93;;;6.30;99.90;;;;;;5054414;28;20626;-78
2022/03/08 09:39:40;;;;;;;20.23;6.32;;;6.40;99.90;;;;;;5054040;28;20248;-77
2022/03/08 09:42:06;;;;;;;6.55;5.35;;;6.50;99.90;;;;;;5053973;28;20536;-77
2022/03/08 09:44:32;;;;;;;11.73;5.90;;;6.60;99.90;;;;;;5054569;28;20635;-78
2022/03/08 09:46:58;;;;;;;8.82;5.32;;;6.80;99.90;;;;;;5054001;28;20250;-78
2022/03/08 09:49:23;;;;;;;7.55;5.32;;;6.80;99.90;;;;;;5053955;28;20558;-77
2022/03/08 09:51:53;;;;;;;40.20;6.97;;;6.80;99.90;;;;;;5053810;28;20175;-78
2022/03/08 09:54:19;;;;;;;10.18;5.22;;;6.70;99.90;;;;;;5053867;28;20164;-78
2022/03/08 09:56:45;;;;;;;14.82;6.53;;;6.60;99.90;;;;;;5053651;28;20269;-77
2022/03/08 09:59:17;;;;;;;13.57;6.05;;;6.80;99.90;;;;;;5053961;28;20299;-77
2022/03/08 10:01:44;;;;;;;18.88;5.50;;;6.90;99.30;;;;;;5053416;28;20739;-78
2022/03/08 10:04:15;;;;;;;5.82;4.88;;;7.00;98.30;;;;;;5035666;28;20195;-78
2022/03/08 10:06:42;;;;;;;7.57;5.07;;;7.00;98.20;;;;;;5035630;28;20636;-77
2022/03/08 10:09:15;;;;;;;6.57;5.45;;;7.00;98.80;;;;;;5052683;28;20175;-78
2022/03/08 10:11:41;;;;;;;13.75;5.85;;;7.10;98.00;;;;;;5053605;28;20175;-77
2022/03/08 10:14:11;;;;;;;8.38;4.97;;;7.20;97.70;;;;;;5053484;28;20159;-78
2022/03/08 10:16:44;;;;;;;10.07;4.57;;;7.20;97.90;;;;;;5053033;28;20548;-78
2022/03/08 10:19:11;;;;;;;12.80;5.70;;;7.50;97.90;;;;;;5053508;28;20619;-78
2022/03/08 10:21:36;;;;;;;6.22;5.13;;;7.50;97.70;;;;;;5053295;28;20198;-77
2022/03/08 10:24:02;;;;;;;5.43;4.57;;;7.70;97.80;;;;;;5053493;28;20515;-78
2022/03/08 10:26:28;;;;;;;13.52;5.20;;;7.70;97.10;;;;;;5053369;28;20233;-78
2022/03/08 10:28:55;;;;;;;5.88;5.18;;;7.70;97.10;;;;;;5053515;28;20179;-77
2022/03/08 10:31:21;;;;;;;10.63;5.63;;;7.70;96.70;;;;;;5053213;28;20163;-78
2022/03/08 10:33:48;;;;;;;5.88;5.28;;;8.00;96.70;;;;;;5053136;28;20171;-77
2022/03/08 10:36:21;;;;;;;10.38;4.90;;;7.90;96.70;;;;;;5052899;28;20298;-77
2022/03/08 10:39:14;;;;;;;6.03;5.38;;;7.90;96.90;;;;;;5052987;28;20159;-77
2022/03/08 10:41:51;;;;;;;9.73;5.70;;;7.80;95.70;;;;;;5052814;28;20643;-78
2022/03/08 10:44:31;;;;;;;6.85;5.30;;;7.80;96.00;;;;;;5052697;28;20651;-78
2022/03/08 10:47:09;;;;;;;7.38;5.43;;;7.90;95.90;;;;;;5052733;28;20171;-77
2022/03/08 10:49:56;;;;;;;14.20;5.53;;;8.00;95.80;;;;;;5052799;28;20263;-78
2022/03/08 10:52:32;;;;;;;6.38;5.18;;;8.10;95.60;;;;;;5053044;28;20274;-82
2022/03/08 10:55:08;;;;;;;10.88;5.50;;;8.10;95.50;;;;;;5037699;28;20658;-80
2022/03/08 10:57:35;;;;;;;9.00;5.60;;;8.20;95.30;;;;;;5034554;28;20286;-77
2022/03/08 11:00:00;;;;;;;11.30;5.90;;;8.40;95.10;;;;;;5052784;28;20178;-80
2022/03/08 11:02:26;;;;;;;9.55;5.43;;;8.30;94.90;;;;;;5034282;28;20632;-82
2022/03/08 11:05:09;;;;;;;6.75;5.15;;;8.30;94.80;;;;;;5034653;28;20182;-78
2022/03/08 11:07:36;;;;;;;11.45;5.72;;;8.30;94.90;;;;;;5051873;28;20167;-80
2022/03/08 11:10:10;;;;;;;5.40;4.90;;;8.40;95.00;;;;;;5034632;28;20245;-78
2022/03/08 11:12:37;;;;;;;12.77;5.32;;;8.40;94.60;;;;;;5052208;28;20262;-78
2022/03/08 11:15:05;;;;;;;8.68;5.80;;;8.40;94.70;;;;;;5034550;28;20191;-79
2022/03/08 11:17:33;;;;;;;7.32;5.07;;;8.60;94.60;;;;;;5034426;28;20266;-79
2022/03/08 11:20:02;;;;;;;10.20;4.80;;;8.50;93.70;;;;;;5034480;28;20171;-77
2022/03/08 11:22:29;;;;;;;5.53;4.97;;;8.60;94.10;;;;;;5052735;28;20163;-77
2022/03/08 11:24:56;;;;;;;5.07;4.63;;;8.70;94.00;;;;;;5034348;28;20698;-77
2022/03/08 11:27:22;;;;;;;6.90;5.65;;;8.80;93.40;;;;;;5052577;28;20174;-77
2022/03/08 11:29:49;;;;;;;11.52;4.90;;;8.80;93.70;;;;;;5052218;28;20171;-78
2022/03/08 11:32:35;;;;;;;10.98;5.32;;;8.80;93.60;;;;;;5034485;28;20245;-78
2022/03/08 11:35:29;;;;;;;11.88;5.65;;;9.00;93.40;;;;;;5052031;28;20222;-77
2022/03/08 11:37:55;;;;;;;21.13;5.95;;;9.10;93.00;;;;;;5052226;28;20194;-78
2022/03/08 11:40:22;;;;;;;6.22;5.63;;;9.10;92.90;;;;;;5051898;28;20253;-79
2022/03/08 11:42:53;;;;;;;8.48;5.15;;;9.10;92.80;;;;;;5051798;28;20191;-78
2022/03/08 11:45:24;;;;;;;16.08;5.63;;;9.10;92.10;;;;;;5051954;28;20190;-78
2022/03/08 11:47:56;;;;;;;10.40;5.65;;;9.10;92.50;;;;;;5051740;28;20159;-78
2022/03/08 11:50:27;;;;;;;8.82;4.50;;;9.20;92.10;;;;;;5051997;28;20159;-78
2022/03/08 11:53:14;;;;;;;8.68;5.05;;;9.20;92.00;;;;;;5052014;28;20170;-77
2022/03/08 11:55:43;;;;;;;7.22;5.13;;;9.20;91.90;;;;;;5051849;28;20905;-77
2022/03/08 11:58:09;;;;;;;5.43;4.85;;;9.30;91.90;;;;;;5051839;28;20171;-77
2022/03/08 12:00:43;;;;;;;16.80;4.97;;;9.40;91.80;;;;;;5034277;28;20182;-77
2022/03/08 12:03:12;;;;;;;14.32;5.20;;;9.50;91.80;;;;;;5051749;28;20246;-78
2022/03/08 12:05:38;;;;;;;14.07;6.43;;;9.50;91.80;;;;;;5051615;28;20186;-77
2022/03/08 12:08:25;;;;;;;11.40;5.63;;;9.60;91.30;;;;;;5051694;28;20174;-77
2022/03/08 12:10:58;;;;;;;10.45;4.93;;;9.50;91.00;;;;;;5051761;28;20179;-82
2022/03/08 12:13:24;;;;;;;10.57;4.85;;;9.50;90.90;;;;;;5052044;28;20237;-77
2022/03/08 12:16:08;;;;;;;64.88;7.55;;;9.60;91.10;;;;;;5051787;28;20238;-77
2022/03/08 12:18:49;;;;;;;10.20;4.85;;;9.70;91.10;;;;;;5051531;28;20253;-78
2022/03/08 12:21:14;;;;;;;6.10;4.53;;;9.70;90.40;;;;;;5051488;28;20167;-78
2022/03/08 12:23:57;;;;;;;6.60;5.03;;;9.80;90.70;;;;;;5049216;28;20503;-78
2022/03/08 12:26:42;;;;;;;5.22;4.72;;;9.80;90.10;;;;;;5044298;28;20195;-82
2022/03/08 12:29:21;;;;;;;4.22;3.83;;;9.90;90.80;;;;;;5051691;28;20178;-76
2022/03/08 12:31:56;;;;;;;5.40;4.43;;;9.80;90.60;;;;;;5053521;28;20190;-76
2022/03/08 12:34:39;;;;;;;5.75;4.80;;;9.90;90.00;;;;;;5055477;28;20258;-76
2022/03/08 12:37:09;;;;;;;4.82;4.10;;;10.00;89.60;;;;;;5055236;28;20242;-76
2022/03/08 12:39:55;;;;;;;14.10;4.18;;;10.00;89.70;;;;;;5055346;28;20698;-76
2022/03/08 12:42:39;;;;;;;10.45;4.40;;;10.10;89.90;;;;;;5054809;28;20687;-77
2022/03/08 12:45:19;;;;;;;11.35;4.78;;;10.10;88.50;;;;;;5055266;28;20191;-77
2022/03/08 12:48:15;;;;;;;5.57;4.80;;;10.20;89.20;;;;;;5055002;28;20186;-77
2022/03/08 12:50:42;;;;;;;5.85;4.63;;;10.30;88.80;;;;;;5046716;28;20658;-77
2022/03/08 12:53:11;;;;;;;5.72;4.60;;;10.20;87.80;;;;;;5037355;28;20599;-78
2022/03/08 12:55:40;;;;;;;5.32;4.47;;;10.20;88.40;;;;;;5054469;28;20660;-79